createdAt,value
2022-11-16T00:02:13.972Z,123.45
2022-11-16T00:04:43.159Z,97.00
2022-11-16T00:07:10.597Z,92.40
2022-11-16T00:09:38.239Z,87.55
2022-11-16T00:12:08.004Z,102.03
2022-11-16T00:14:36.280Z,81.65
2022-11-16T00:17:05.092Z,87.57
2022-11-16T00:19:32.411Z,89.97
2022-11-16T00:22:00.935Z,94.45
2022-11-16T00:24:32.319Z,88.80
2022-11-16T00:26:59.478Z,86.75
2022-11-16T00:29:29.259Z,84.32
2022-11-16T00:31:56.454Z,92.20
2022-11-16T00:34:24.766Z,88.63
2022-11-16T00:36:52.392Z,108.82
2022-11-16T00:39:20.785Z,103.18
2022-11-16T00:41:50.102Z,103.20
2022-11-16T00:44:17.243Z,102.85
2022-11-16T00:46:44.117Z,111.85
2022-11-16T00:49:12.412Z,112.72
2022-11-16T00:51:41.936Z,108.38
2022-11-16T00:54:09.371Z,98.13
2022-11-16T00:56:37.021Z,94.68
2022-11-16T00:59:04.048Z,104.70
2022-11-16T01:01:31.645Z,117.88
2022-11-16T01:03:58.748Z,106.55
2022-11-16T01:06:25.748Z,94.57
2022-11-16T01:08:52.714Z,107.78
2022-11-16T01:11:38.591Z,110.93
2022-11-16T01:14:08.540Z,107.63
2022-11-16T01:16:36.185Z,106.88
2022-11-16T01:19:04.046Z,103.13
2022-11-16T01:21:32.088Z,104.93
2022-11-16T01:23:59.027Z,101.75
2022-11-16T01:26:26.229Z,100.97
2022-11-16T01:28:53.610Z,103.55
2022-11-16T01:31:21.408Z,106.05
2022-11-16T01:33:48.327Z,118.50
2022-11-16T01:36:15.856Z,122.20
2022-11-16T01:38:44.655Z,114.32
2022-11-16T01:41:17.951Z,109.00
2022-11-16T01:44:03.105Z,111.25
2022-11-16T01:46:30.586Z,88.47
2022-11-16T01:49:04.339Z,107.82
2022-11-16T01:51:32.736Z,78.35
2022-11-16T01:54:03.210Z,103.35
2022-11-16T01:56:31.871Z,99.75
2022-11-16T01:58:58.936Z,99.25
2022-11-16T02:01:25.887Z,102.68
2022-11-16T02:03:52.794Z,103.28
2022-11-16T02:06:28.379Z,90.90
2022-11-16T02:09:32.369Z,97.68
2022-11-16T02:12:06.642Z,98.65
2022-11-16T02:14:42.181Z,97.13
2022-11-16T02:17:22.761Z,96.22
2022-11-16T02:20:29.257Z,87.03
2022-11-16T02:23:04.580Z,76.88
2022-11-16T02:25:44.295Z,84.40
2022-11-16T02:28:19.744Z,83.28
2022-11-16T02:30:50.846Z,93.10
2022-11-16T02:33:22.763Z,92.45
2022-11-16T02:35:57.210Z,89.95
2022-11-16T02:38:28.167Z,95.85
2022-11-16T02:41:01.504Z,82.60
2022-11-16T02:43:42.179Z,84.18
2022-11-16T02:46:16.172Z,80.72
2022-11-16T02:48:48.080Z,82.47
2022-11-16T02:51:15.371Z,76.22
2022-11-16T02:53:57.915Z,78.15
2022-11-16T02:56:24.904Z,82.97
2022-11-16T02:58:51.619Z,86.47
2022-11-16T03:01:40.917Z,84.88
2022-11-16T03:04:10.605Z,91.05
2022-11-16T03:06:41.720Z,95.40
2022-11-16T03:09:19.308Z,78.32
2022-11-16T03:12:01.604Z,83.30
2022-11-16T03:14:56.096Z,76.55
2022-11-16T03:17:38.089Z,81.80
2022-11-16T03:20:13.034Z,90.78
2022-11-16T03:22:46.510Z,41.35
2022-11-16T03:25:18.116Z,80.82
2022-11-16T03:28:21.921Z,61.97
2022-11-16T03:30:57.814Z,61.58
2022-11-16T03:33:46.689Z,95.18
2022-11-16T03:36:32.884Z,67.20
2022-11-16T03:39:05.790Z,86.65
2022-11-16T03:41:35.571Z,81.88
2022-11-16T03:44:02.484Z,85.70
2022-11-16T03:46:30.679Z,82.55
2022-11-16T03:48:59.700Z,80.40
2022-11-16T03:51:27.361Z,77.55
2022-11-16T03:53:54.408Z,79.63
2022-11-16T03:56:21.630Z,56.42
2022-11-16T03:58:48.502Z,72.65
2022-11-16T04:01:15.158Z,73.38
2022-11-16T04:03:41.792Z,60.45
2022-11-16T04:06:28.546Z,64.38
2022-11-16T04:11:58.875Z,36.58
2022-11-16T04:14:46.348Z,58.38
2022-11-16T04:17:32.618Z,36.08
2022-11-16T04:20:18.332Z,52.13
2022-11-16T04:23:16.542Z,58.80
2022-11-16T04:25:44.491Z,56.83
2022-11-16T04:28:14.431Z,57.10
2022-11-16T04:31:02.206Z,55.13
2022-11-16T04:33:48.967Z,55.10
2022-11-16T04:36:34.850Z,63.72
2022-11-16T04:39:04.111Z,58.15
2022-11-16T04:41:50.678Z,48.60
2022-11-16T04:44:17.433Z,53.35
2022-11-16T04:47:02.748Z,51.03
2022-11-16T04:49:29.330Z,50.03
2022-11-16T04:51:56.434Z,51.72
2022-11-16T04:54:23.133Z,64.22
2022-11-16T04:56:49.773Z,47.70
2022-11-16T04:59:16.538Z,53.63
2022-11-16T05:02:01.834Z,56.05
2022-11-16T05:04:28.950Z,52.25
2022-11-16T05:06:55.910Z,53.90
2022-11-16T05:09:22.544Z,61.78
2022-11-16T05:11:49.195Z,64.05
2022-11-16T05:14:15.967Z,58.80
2022-11-16T05:16:43.246Z,52.70
2022-11-16T05:19:28.390Z,60.00
2022-11-16T05:21:55.069Z,60.55
2022-11-16T05:24:34.514Z,58.13
2022-11-16T05:27:06.143Z,55.55
2022-11-16T05:29:33.682Z,63.53
2022-11-16T05:32:01.094Z,44.05
2022-11-16T05:34:28.937Z,61.10
2022-11-16T05:36:56.026Z,60.60
2022-11-16T05:39:23.397Z,64.72
2022-11-16T05:41:50.714Z,58.95
2022-11-16T05:44:17.903Z,69.68
2022-11-16T05:46:45.419Z,57.28
2022-11-16T05:49:13.432Z,55.35
2022-11-16T05:51:41.979Z,64.13
2022-11-16T05:54:13.115Z,50.08
2022-11-16T05:56:39.942Z,42.15
2022-11-16T05:59:07.845Z,31.63
2022-11-16T06:01:35.855Z,49.92
2022-11-16T06:04:03.290Z,51.53
2022-11-16T06:06:30.181Z,56.47
2022-11-16T06:08:57.039Z,50.53
2022-11-16T06:11:24.196Z,36.90
2022-11-16T06:13:51.165Z,28.08
2022-11-16T06:16:17.956Z,45.63
2022-11-16T06:18:46.687Z,51.63
2022-11-16T06:21:15.308Z,61.53
2022-11-16T06:23:42.147Z,61.70
2022-11-16T06:26:10.021Z,59.88
2022-11-16T06:28:37.220Z,60.08
2022-11-16T06:31:04.378Z,39.67
2022-11-16T06:33:33.764Z,35.75
2022-11-16T06:36:01.329Z,55.47
2022-11-16T06:38:28.047Z,55.15
2022-11-16T06:40:57.148Z,66.65
2022-11-16T06:43:24.913Z,42.78
2022-11-16T06:45:55.771Z,58.22
2022-11-16T06:48:24.351Z,52.13
2022-11-16T06:50:52.298Z,60.47
2022-11-16T06:53:23.476Z,54.22
2022-11-16T06:55:52.742Z,47.33
2022-11-16T06:58:21.663Z,54.00
2022-11-16T07:00:48.236Z,43.10
2022-11-16T07:03:16.306Z,61.47
2022-11-16T07:05:42.956Z,52.88
2022-11-16T07:08:09.983Z,59.28
2022-11-16T07:10:38.404Z,64.00
2022-11-16T07:13:05.645Z,58.72
2022-11-16T07:15:34.023Z,58.22
2022-11-16T07:18:05.483Z,66.00
2022-11-16T07:20:34.147Z,62.20
2022-11-16T07:23:01.998Z,57.92
2022-11-16T07:25:29.255Z,67.38
2022-11-16T07:27:57.824Z,68.63
2022-11-16T07:30:24.716Z,69.18
2022-11-16T07:32:51.388Z,68.82
2022-11-16T07:35:18.071Z,48.97
2022-11-16T07:37:44.651Z,66.97
2022-11-16T07:40:11.426Z,70.45
2022-11-16T07:42:38.061Z,64.88
2022-11-16T07:45:05.047Z,64.45
2022-11-16T07:47:37.100Z,72.55
2022-11-16T07:50:06.120Z,66.63
2022-11-16T07:52:32.888Z,73.63
2022-11-16T07:54:59.578Z,69.78
2022-11-16T07:57:26.163Z,80.60
2022-11-16T07:59:52.734Z,69.70
2022-11-16T08:02:19.319Z,73.40
2022-11-16T08:04:48.449Z,73.10
2022-11-16T08:07:16.736Z,68.28
2022-11-16T08:09:43.700Z,54.00
2022-11-16T08:12:10.456Z,61.10
2022-11-16T08:14:37.073Z,72.05
2022-11-16T08:17:05.106Z,63.83
2022-11-16T08:19:31.750Z,63.20
2022-11-16T08:21:58.779Z,56.75
2022-11-16T08:24:25.494Z,70.38
2022-11-16T08:26:52.147Z,72.60
2022-11-16T08:29:18.856Z,73.82
2022-11-16T08:31:45.790Z,29.17
2022-11-16T08:34:12.527Z,63.17
2022-11-16T08:36:39.191Z,45.08
2022-11-16T08:39:05.909Z,58.38
2022-11-16T08:41:32.926Z,74.38
2022-11-16T08:44:01.354Z,65.47
2022-11-16T08:46:28.090Z,57.22
2022-11-16T08:48:56.967Z,57.65
2022-11-16T08:51:24.706Z,63.10
2022-11-16T08:53:59.915Z,58.67
2022-11-16T08:56:30.388Z,58.53
2022-11-16T08:58:59.148Z,48.53
2022-11-16T09:01:28.682Z,48.08
2022-11-16T09:03:56.057Z,55.03
2022-11-16T09:06:24.392Z,47.65
2022-11-16T09:08:51.580Z,58.47
2022-11-16T09:11:21.891Z,61.55
2022-11-16T09:13:53.635Z,55.13
2022-11-16T09:16:21.774Z,60.20
2022-11-16T09:18:50.896Z,58.03
2022-11-16T09:21:19.641Z,53.45
2022-11-16T09:23:47.409Z,41.92
2022-11-16T09:26:14.758Z,47.58
2022-11-16T09:28:43.204Z,54.50
2022-11-16T09:31:10.436Z,54.10
2022-11-16T09:33:37.849Z,51.90
2022-11-16T09:36:09.603Z,54.35
2022-11-16T09:39:10.458Z,47.58
2022-11-16T09:41:55.565Z,47.72
2022-11-16T09:44:47.060Z,49.35
2022-11-16T09:47:19.797Z,47.75
2022-11-16T09:49:54.152Z,50.97
2022-11-16T09:52:53.954Z,25.58
2022-11-16T09:55:27.671Z,51.53
2022-11-16T09:57:57.311Z,49.38
2022-11-16T10:00:24.838Z,60.70
2022-11-16T10:02:57.571Z,53.83
2022-11-16T10:05:37.893Z,28.40
2022-11-16T10:08:22.671Z,52.78
2022-11-16T10:11:03.010Z,53.83
2022-11-16T10:13:58.909Z,50.90
2022-11-16T10:16:55.425Z,23.08
2022-11-16T10:19:45.550Z,50.00
2022-11-16T10:22:18.013Z,49.03
2022-11-16T10:24:59.205Z,43.95
2022-11-16T10:27:36.221Z,46.40
2022-11-16T10:30:23.856Z,45.30
2022-11-16T10:33:11.436Z,48.10
2022-11-16T10:35:47.957Z,50.40
2022-11-16T10:38:25.296Z,37.08
2022-11-16T10:40:56.394Z,45.78
2022-11-16T10:43:33.339Z,27.63
2022-11-16T10:46:03.228Z,50.53
2022-11-16T10:49:14.452Z,52.95
2022-11-16T10:51:41.058Z,38.10
2022-11-16T10:54:18.477Z,50.92
2022-11-16T10:56:55.705Z,36.08
2022-11-16T10:59:39.641Z,27.85
2022-11-16T11:02:31.378Z,30.27
2022-11-16T11:05:17.666Z,21.65
2022-11-16T11:07:55.337Z,40.55
2022-11-16T11:10:45.358Z,40.90
2022-11-16T11:13:12.456Z,42.08
2022-11-16T11:15:41.882Z,42.10
2022-11-16T11:18:23.610Z,47.53
2022-11-16T11:21:01.129Z,49.30
2022-11-16T11:23:28.081Z,34.80
2022-11-16T11:26:00.380Z,49.42
2022-11-16T11:28:30.234Z,43.25
2022-11-16T11:31:03.995Z,43.72
2022-11-16T11:33:41.940Z,40.78
2022-11-16T11:36:32.976Z,48.50
2022-11-16T11:39:21.524Z,37.60
2022-11-16T11:42:21.315Z,46.10
2022-11-16T11:44:59.430Z,49.13
2022-11-16T11:47:58.998Z,37.97
2022-11-16T11:50:48.328Z,47.75
2022-11-16T11:53:47.073Z,42.10
2022-11-16T11:56:15.120Z,58.50
2022-11-16T11:58:42.877Z,55.33
2022-11-16T12:01:29.879Z,50.28
2022-11-16T12:04:08.267Z,44.03
2022-11-16T12:06:58.619Z,45.65
2022-11-16T12:09:41.361Z,35.53
2022-11-16T12:12:34.085Z,45.50
2022-11-16T12:15:29.315Z,38.47
2022-11-16T12:18:20.867Z,42.92
2022-11-16T12:20:51.546Z,41.95
2022-11-16T12:23:44.172Z,31.45
2022-11-16T12:26:16.001Z,44.92
2022-11-16T12:28:58.557Z,38.35
2022-11-16T12:31:37.873Z,20.90
2022-11-16T12:34:07.595Z,35.22
2022-11-16T12:37:11.414Z,54.95
2022-11-16T12:40:09.918Z,43.70
2022-11-16T12:42:51.269Z,38.70
2022-11-16T12:46:01.162Z,35.33
2022-11-16T12:48:56.047Z,34.65
2022-11-16T12:51:46.515Z,28.58
2022-11-16T12:54:33.396Z,36.40
2022-11-16T12:57:18.474Z,41.95
2022-11-16T13:00:07.870Z,37.20
2022-11-16T13:03:09.594Z,44.35
2022-11-16T13:05:57.318Z,42.03
2022-11-16T13:08:36.789Z,35.25
2022-11-16T13:11:16.402Z,38.80
2022-11-16T13:13:51.530Z,32.15
2022-11-16T13:16:21.530Z,38.75
2022-11-16T13:18:48.655Z,45.35
2022-11-16T13:21:19.959Z,45.55
2022-11-16T13:24:16.930Z,38.78
2022-11-16T13:27:20.880Z,36.63
2022-11-16T13:30:03.690Z,45.85
2022-11-16T13:32:35.212Z,37.90
2022-11-16T13:35:11.839Z,34.97
2022-11-16T13:37:41.161Z,41.00
2022-11-16T13:40:08.722Z,38.80
2022-11-16T13:42:43.854Z,45.03
2022-11-16T13:45:19.868Z,44.83
2022-11-16T13:47:55.691Z,39.40
2022-11-16T13:50:38.080Z,30.30
2022-11-16T13:56:01.561Z,28.63
2022-11-16T13:58:32.661Z,32.80
2022-11-16T14:01:14.519Z,35.45
2022-11-16T14:03:43.184Z,38.65
2022-11-16T14:06:24.917Z,31.05
2022-11-16T14:08:58.642Z,36.55
2022-11-16T14:11:33.109Z,35.30
2022-11-16T14:14:32.803Z,38.65
2022-11-16T14:16:59.534Z,31.45
2022-11-16T14:19:52.338Z,35.72
2022-11-16T14:23:06.021Z,36.03
2022-11-16T14:25:48.604Z,39.35
2022-11-16T14:28:17.993Z,36.03
2022-11-16T14:31:13.043Z,40.80
2022-11-16T14:33:39.849Z,39.58
2022-11-16T14:36:08.840Z,38.08
2022-11-16T14:38:40.394Z,40.67
2022-11-16T14:41:19.323Z,38.63
2022-11-16T14:43:50.746Z,36.30
2022-11-16T14:46:29.837Z,35.67
2022-11-16T14:48:59.400Z,34.35
2022-11-16T14:51:41.603Z,28.48
2022-11-16T14:54:28.849Z,32.88
2022-11-16T14:56:57.832Z,27.63
2022-11-16T14:59:30.929Z,35.75
2022-11-16T15:02:13.197Z,30.13
2022-11-16T15:04:40.248Z,27.75
2022-11-16T15:07:07.789Z,33.08
2022-11-16T15:09:39.734Z,38.20
2022-11-16T15:12:31.936Z,21.60
2022-11-16T15:15:06.023Z,27.58
2022-11-16T15:17:33.662Z,28.63
2022-11-16T15:20:22.446Z,37.85
2022-11-16T15:22:55.130Z,32.33
2022-11-16T15:25:42.026Z,32.30
2022-11-16T15:28:28.039Z,37.38
2022-11-16T15:30:58.045Z,36.90
2022-11-16T15:33:28.791Z,38.88
2022-11-16T15:35:57.670Z,42.00
2022-11-16T15:38:39.103Z,36.05
2022-11-16T15:41:07.919Z,32.50
2022-11-16T15:49:31.534Z,36.80
2022-11-16T15:51:59.852Z,30.45
2022-11-16T15:54:52.093Z,40.67
2022-11-16T15:57:25.527Z,28.13
2022-11-16T15:59:58.012Z,40.28
2022-11-16T16:02:28.092Z,38.55
2022-11-16T16:04:54.918Z,36.17
2022-11-16T16:07:39.145Z,36.15
2022-11-16T16:10:24.746Z,36.38
2022-11-16T16:12:59.854Z,41.38
2022-11-16T16:15:37.364Z,44.38
2022-11-16T16:18:14.383Z,59.08
2022-11-16T16:20:48.275Z,61.90
2022-11-16T16:23:16.828Z,56.60
2022-11-16T16:25:50.083Z,66.53
2022-11-16T16:28:17.566Z,57.25
2022-11-16T16:30:44.232Z,60.05
2022-11-16T16:33:21.707Z,47.85
2022-11-16T16:35:52.894Z,44.85
2022-11-16T16:38:19.602Z,40.58
2022-11-16T16:40:47.290Z,48.70
2022-11-16T16:43:14.128Z,41.63
2022-11-16T16:45:43.662Z,45.28
2022-11-16T16:48:12.685Z,58.65
2022-11-16T16:50:39.751Z,32.88
2022-11-16T16:53:06.789Z,50.15
2022-11-16T16:55:37.405Z,43.30
2022-11-16T16:58:04.755Z,38.08
2022-11-16T17:00:31.960Z,30.88
2022-11-16T17:02:59.618Z,30.95
2022-11-16T17:05:29.275Z,28.38
2022-11-16T17:07:56.369Z,32.45
2022-11-16T17:10:23.768Z,28.58
2022-11-16T17:12:53.830Z,27.40
2022-11-16T17:15:20.476Z,27.65
2022-11-16T17:17:47.406Z,32.85
2022-11-16T17:20:14.648Z,23.88
2022-11-16T17:22:42.051Z,23.02
2022-11-16T17:25:10.004Z,26.13
2022-11-16T17:27:36.746Z,15.13
2022-11-16T17:30:04.288Z,24.10
2022-11-16T17:32:32.251Z,23.00
2022-11-16T17:35:06.280Z,32.30
2022-11-16T17:37:33.006Z,29.45
2022-11-16T17:39:59.613Z,37.13
2022-11-16T17:42:26.333Z,17.67
2022-11-16T17:44:54.038Z,19.10
2022-11-16T17:47:20.801Z,25.95
2022-11-16T17:49:47.553Z,26.70
2022-11-16T17:52:14.274Z,28.83
2022-11-16T17:54:40.923Z,24.45
2022-11-16T17:57:07.524Z,24.30
2022-11-16T17:59:34.447Z,20.75
2022-11-16T18:02:01.124Z,22.88
2022-11-16T18:04:28.192Z,19.30
2022-11-16T18:06:56.577Z,36.20
2022-11-16T18:09:24.260Z,29.73
2022-11-16T18:11:50.930Z,26.85
2022-11-16T18:14:20.224Z,22.20
2022-11-16T18:16:48.444Z,24.50
2022-11-16T18:19:17.695Z,22.98
2022-11-16T18:21:45.232Z,17.35
2022-11-16T18:24:13.943Z,22.02
2022-11-16T18:26:43.076Z,22.55
2022-11-16T18:31:53.886Z,17.42
2022-11-16T18:34:20.579Z,19.67
2022-11-16T18:36:49.061Z,19.60
2022-11-16T18:39:15.745Z,21.17
2022-11-16T18:41:54.795Z,22.42
2022-11-16T18:44:22.352Z,16.85
2022-11-16T18:46:49.106Z,24.60
2022-11-16T18:49:18.967Z,22.27
2022-11-16T18:51:45.827Z,19.58
2022-11-16T18:54:15.375Z,19.58
2022-11-16T18:59:31.309Z,14.23
2022-11-16T19:01:58.004Z,19.50
2022-11-16T19:04:27.040Z,12.80
2022-11-16T19:06:55.281Z,18.65
2022-11-16T19:09:21.910Z,14.57
2022-11-16T19:11:48.668Z,19.88
2022-11-16T19:14:15.236Z,16.65
2022-11-16T19:16:52.603Z,12.52
2022-11-16T19:19:22.446Z,18.77
2022-11-16T19:21:52.181Z,19.70
2022-11-16T19:24:21.528Z,22.35
2022-11-16T19:26:48.147Z,16.40
2022-11-16T19:29:14.912Z,19.88
2022-11-16T19:31:42.960Z,17.98
2022-11-16T19:34:13.486Z,16.10
2022-11-16T19:36:40.180Z,20.83
2022-11-16T19:39:06.917Z,14.35
2022-11-16T19:41:33.928Z,17.58
2022-11-16T19:44:01.965Z,15.27
2022-11-16T19:46:31.583Z,19.77
2022-11-16T19:48:58.961Z,16.52
2022-11-16T19:51:31.075Z,21.20
2022-11-16T19:53:59.832Z,17.80
2022-11-16T19:56:26.994Z,19.23
2022-11-16T19:58:54.028Z,22.80
2022-11-16T20:01:27.750Z,13.93
2022-11-16T20:03:57.369Z,14.23
2022-11-16T20:06:31.900Z,20.10
2022-11-16T20:09:01.231Z,14.73
2022-11-16T20:11:30.344Z,17.48
2022-11-16T20:13:58.374Z,18.80
2022-11-16T20:16:28.336Z,13.10
2022-11-16T20:18:55.737Z,17.40
2022-11-16T20:21:33.260Z,17.25
2022-11-16T20:24:06.091Z,23.30
2022-11-16T20:26:35.213Z,16.05
2022-11-16T20:29:01.926Z,20.35
2022-11-16T20:31:31.283Z,14.00
2022-11-16T20:34:04.406Z,19.15
2022-11-16T20:36:34.063Z,14.70
2022-11-16T20:39:01.399Z,17.88
2022-11-16T20:41:38.290Z,20.35
2022-11-16T20:44:05.008Z,17.75
2022-11-16T20:46:33.524Z,16.20
2022-11-16T20:49:04.957Z,17.95
2022-11-16T20:51:36.093Z,19.98
2022-11-16T20:54:02.934Z,11.45
2022-11-16T20:56:29.658Z,22.80
2022-11-16T20:58:57.051Z,21.50
2022-11-16T21:01:29.030Z,18.05
2022-11-16T21:03:56.386Z,16.17
2022-11-16T21:06:23.275Z,13.60
2022-11-16T21:08:50.001Z,18.88
2022-11-16T21:11:19.485Z,13.77
2022-11-16T21:14:05.891Z,18.77
2022-11-16T21:16:34.249Z,20.27
2022-11-16T21:19:01.525Z,14.32
2022-11-16T21:21:28.811Z,17.30
2022-11-16T21:23:55.632Z,16.38
2022-11-16T21:26:31.300Z,21.98
2022-11-16T21:28:59.314Z,22.30
2022-11-16T21:31:32.333Z,21.50
2022-11-16T21:34:04.126Z,25.98
2022-11-16T21:36:34.341Z,19.80
2022-11-16T21:39:02.253Z,19.30
2022-11-16T21:41:29.183Z,17.98
2022-11-16T21:43:56.409Z,18.73
2022-11-16T21:46:26.869Z,26.85
2022-11-16T21:48:55.948Z,18.27
2022-11-16T21:51:28.254Z,17.35
2022-11-16T21:53:55.222Z,19.40
2022-11-16T21:56:25.244Z,22.02
2022-11-16T21:58:53.267Z,17.83
2022-11-16T22:01:20.833Z,15.55
2022-11-16T22:04:08.287Z,13.45
2022-11-16T22:06:54.189Z,19.17
2022-11-16T22:09:21.180Z,14.98
2022-11-16T22:14:30.509Z,20.35
2022-11-16T22:16:57.447Z,15.02
2022-11-16T22:19:24.304Z,16.20
2022-11-16T22:21:51.482Z,14.27
2022-11-16T22:24:19.586Z,16.23
2022-11-16T22:26:46.485Z,14.77
2022-11-16T22:29:16.121Z,18.23
2022-11-16T22:31:43.373Z,18.08
2022-11-16T22:34:10.294Z,14.50
2022-11-16T22:36:37.299Z,17.58
2022-11-16T22:39:05.431Z,22.83
2022-11-16T22:41:32.351Z,22.50
2022-11-16T22:43:59.313Z,26.13
2022-11-16T22:46:26.291Z,21.27
2022-11-16T22:48:53.309Z,25.95
2022-11-16T22:51:30.180Z,25.67
2022-11-16T22:54:02.601Z,12.73
2022-11-16T22:56:31.680Z,25.15
2022-11-16T22:58:59.105Z,21.52
2022-11-16T23:01:26.060Z,19.63
2022-11-16T23:03:53.087Z,25.13
2022-11-16T23:06:21.649Z,16.88
2022-11-16T23:08:49.108Z,18.05
2022-11-16T23:11:39.774Z,18.08
2022-11-16T23:14:29.274Z,17.90
2022-11-16T23:16:56.283Z,19.60
2022-11-16T23:19:41.704Z,24.08
2022-11-16T23:22:33.034Z,24.65
2022-11-16T23:25:21.018Z,26.52
2022-11-16T23:28:10.662Z,15.43
2022-11-16T23:30:37.994Z,24.80
2022-11-16T23:33:06.568Z,25.95
2022-11-16T23:35:33.992Z,29.50
2022-11-16T23:38:02.931Z,19.77
2022-11-16T23:40:40.737Z,25.60
2022-11-16T23:43:31.725Z,25.40
2022-11-16T23:45:58.687Z,20.23
2022-11-16T23:48:25.640Z,16.52
2022-11-16T23:50:52.691Z,21.80
2022-11-16T23:53:19.685Z,16.80
2022-11-16T23:55:48.240Z,22.48
2022-11-16T23:58:16.857Z,17.08
